Latest Coastal Weather Observations for Neptune Island

IDS60701

Issued at 3:31 pm CST Wednesday 27 May 2015 (issued every 10 minutes, with the page automatically refreshed every 10 minutes)

About coastal observations | Map of coastal stations | Coastal observations for SA | Marine services | Other Formats
Station Details ID: 018115 Name: NEPTUNE ISLAND Lat: -35.34 Lon: 136.12 Height: 32.0 m
Data from the previous 72 hours. | See also: Recent months at Neptune Island
Date/Time
CST
Temp

°C
Wind Pressure Rain
since 9am
mm
Weather Cloud Vis
km
Sea
Height
m
Swell
Dir
 
Speed
knots
Gust
knots
hPa Trend Height
m
Period
s
Dir
27/03:30pm 17.1 WNW 14 16 1016.9 - 0.2 - - - - - - -
27/03:00pm 17.6 WNW 14 16 1016.9 - 0.2 - - - - - - -
27/02:30pm 17.5 WNW 15 18 1016.9 - 0.2 - - - - - - -
27/02:00pm 17.5 WNW 13 16 1016.9 - 0.2 - - - - - - -
27/01:30pm 18.0 WNW 15 17 1017.1 - 0.2 - - - - - - -
27/01:00pm 17.4 W 13 16 1017.4 - 0.2 - - - - - - -
27/12:30pm 16.9 W 12 13 1017.8 - 0.2 - - - - - - -
27/12:00pm 17.0 W 12 14 1018.3 - 0.2 Recent precip. - - - - - -
27/11:30am 16.9 NW 18 22 1018.4 - 0.2 - - - - - - -
27/11:00am 16.3 NW 21 24 1018.7 - 0.0 - - - - - - -
27/10:30am 16.5 NW 21 27 1018.7 - 0.0 - - - - - - -
27/10:00am 16.3 NW 19 23 1018.5 - 0.0 - - - - - - -
27/09:30am 16.8 NW 20 23 1018.5 - 0.0 - - - - - - -
27/09:00am 16.6 NW 20 23 1018.2 - 0.0 - - - - - - -
27/08:30am 16.1 NW 20 24 1018.2 - 0.0 - - - - - - -
27/08:00am 16.0 NW 22 25 1017.9 - 0.0 - - - - - - -
27/07:30am 16.1 NNW 19 24 1017.8 - 0.0 - - - - - - -
27/07:00am 16.2 NW 21 23 1017.7 - 0.0 - - - - - - -
27/06:30am 16.2 NW 21 25 1017.6 - 0.0 - - - - - - -
27/06:00am 16.2 NW 21 24 1017.4 - 0.0 - - - - - - -
27/05:30am 16.1 NW 21 25 1017.2 - 0.0 - - - - - - -
27/05:00am 16.0 NW 21 25 1017.4 - 0.0 - - - - - - -
27/04:30am 16.2 NW 21 25 1017.6 - 0.0 - - - - - - -
27/04:00am 16.1 NW 22 26 1017.4 - 0.0 - - - - - - -
27/03:30am 16.0 NW 19 25 1017.6 - 0.0 - - - - - - -
27/03:00am 16.0 NW 18 22 1017.7 - 0.0 - - - - - - -
27/02:30am 16.1 NW 18 21 1017.9 - 0.0 - - - - - - -
27/02:00am 16.2 NW 18 21 1018.3 - 0.0 - - - - - - -
27/01:30am 16.3 NW 18 23 1018.3 - 0.0 - - - - - - -
27/01:00am 16.2 NW 19 23 1018.5 - 0.0 - - - - - - -
27/12:30am 16.2 NW 17 22 1018.8 - 0.0 - - - - - - -
27/12:00am 16.0 NW 18 21 1019.0 - 0.0 - - - - - - -
 
Date/Time
CST
Temp

°C
Wind Pressure Rain
since 9am
mm
Weather Cloud Vis
km
Sea
Height
m
Swell
Dir
 
Speed
knots
Gust
knots
hPa Trend Height
m
Period
s
Dir
26/11:30pm 16.0 NW 18 22 1019.1 - 0.0 - - - - - - -
26/11:00pm 16.1 NW 17 20 1019.2 - 0.0 - - - - - - -
26/10:30pm 16.0 NW 16 19 1019.3 - 0.0 - - - - - - -
26/10:00pm 15.6 N 13 15 1019.2 - 0.0 - - - - - - -
26/09:30pm 15.7 N 12 15 1019.2 - 0.0 - - - - - - -
26/09:00pm 15.8 N 13 15 1019.4 - 0.0 - - - - - - -
26/08:30pm 16.0 N 12 15 1019.7 - 0.0 - - - - - - -
26/08:00pm 15.7 N 12 15 1019.7 - 0.0 - - - - - - -
26/07:30pm 15.8 N 12 14 1019.7 - 0.0 - - - - - - -
26/07:00pm 16.2 NNW 14 16 1020.0 - 0.0 - - - - - - -
26/06:30pm 16.4 NNW 15 19 1019.9 - 0.0 - - - - - - -
26/06:00pm 16.4 N 12 15 1019.9 - 0.0 - - - - - - -
26/05:30pm 16.3 NNE 11 13 1019.6 - 0.0 - - - - - - -
26/05:00pm 16.3 N 8 9 1019.8 - 0.0 - - - - - - -
26/04:30pm 16.7 N 9 10 1019.9 - 0.0 - - - - - - -
26/04:00pm 17.6 NNE 9 11 1019.7 - 0.0 - - - - - - -
26/03:30pm 17.0 NNE 9 10 1019.8 - 0.0 - - - - - - -
26/03:00pm 17.2 NE 8 9 1019.8 - 0.0 - - - - - - -
26/02:30pm 17.6 NE 8 9 1019.9 - 0.0 - - - - - - -
26/02:00pm 17.9 NNE 8 10 1020.2 - 0.0 - - - - - - -
26/01:30pm 17.2 NNE 9 11 1020.7 - 0.0 - - - - - - -
26/01:00pm 17.7 NE 7 9 1021.0 - 0.0 - - - - - - -
26/12:30pm 17.4 NE 6 8 1021.3 - 0.0 - - - - - - -
26/12:00pm 17.4 NE 4 6 1022.0 - 0.0 - - - - - - -
26/11:30am 18.1 NNE 8 9 1022.4 - 0.0 - - - - - - -
26/11:00am 17.1 N 10 12 1023.0 - 0.0 - - - - - - -
26/10:30am 17.2 N 10 11 1023.3 - 0.0 - - - - - - -
26/10:00am 16.1 NNE 2 6 1023.5 - 0.0 - - - - - - -
26/09:30am 15.9 N 4 6 1023.6 - 0.0 - - - - - - -
26/09:00am 15.4 NNW 6 7 1023.8 - 0.2 Recent precip. - - - - - -
26/08:30am 16.4 NNW 9 12 1023.9 - 0.0 - - - - - - -
26/08:00am 16.0 N 10 12 1023.8 - 0.0 - - - - - - -
26/07:30am 15.8 N 10 11 1023.6 - 0.0 - - - - - - -
26/07:00am 15.7 N 10 11 1023.7 - 0.0 - - - - - - -
26/06:30am 15.8 NNE 11 12 1023.4 - 0.0 - - - - - - -
26/06:00am 15.8 NNE 11 13 1023.3 - 0.0 - - - - - - -
26/05:30am 15.7 NE 10 11 1023.4 - 0.0 - - - - - - -
26/05:00am 15.6 NNE 10 11 1023.5 - 0.0 - - - - - - -
26/04:30am 15.4 NNE 10 12 1023.6 - 0.0 - - - - - - -
26/04:00am 15.5 NNE 12 14 1023.7 - 0.0 - - - - - - -
26/03:30am 15.6 NNE 12 14 1023.9 - 0.0 - - - - - - -
26/03:00am 15.8 NNE 14 15 1024.2 - 0.0 - - - - - - -
26/02:30am 15.7 NNE 14 16 1024.3 - 0.0 - - - - - - -
26/02:00am 15.8 NNE 14 16 1024.5 - 0.0 - - - - - - -
26/01:30am 15.8 NE 14 17 1024.6 - 0.0 - - - - - - -
26/01:00am 15.8 NE 12 15 1024.8 - 0.0 - - - - - - -
26/12:30am 15.7 NE 9 14 1025.0 - 0.0 - - - - - - -
26/12:00am 15.7 NE 10 12 1025.1 - 0.0 - - - - - - -
 
Date/Time
CST
Temp

°C
Wind Pressure Rain
since 9am
mm
Weather Cloud Vis
km
Sea
Height
m
Swell
Dir
 
Speed
knots
Gust
knots
hPa Trend Height
m
Period
s
Dir
25/11:30pm 15.8 NE 11 13 1025.4 - 0.0 - - - - - - -
25/11:00pm 16.0 ENE 11 13 1025.5 - 0.0 - - - - - - -
25/10:30pm 15.9 ENE 12 14 1025.7 - 0.0 - - - - - - -
25/10:00pm 15.9 ENE 13 14 1025.8 - 0.0 - - - - - - -
25/09:30pm 16.0 ENE 12 14 1026.1 - 0.0 - - - - - - -
25/09:00pm 16.0 ENE 12 13 1026.2 - 0.0 - - - - - - -
25/08:30pm 16.1 ENE 12 14 1026.1 - 0.0 - - - - - - -
25/08:00pm 16.1 ENE 12 14 1026.3 - 0.0 - - - - - - -
25/07:30pm 16.1 ENE 13 15 1026.0 - 0.0 - - - - - - -
25/07:00pm 16.2 ENE 12 14 1025.6 - 0.0 - - - - - - -
25/06:30pm 16.1 ENE 12 14 1025.5 - 0.0 - - - - - - -
25/06:00pm 16.1 ENE 11 12 1025.6 - 0.0 - - - - - - -
25/05:30pm 16.0 E 11 13 1025.0 - 0.0 - - - - - - -
25/05:00pm 16.2 E 11 12 1025.2 - 0.0 - - - - - - -
25/04:30pm 16.6 E 9 10 1025.3 - 0.0 - - - - - - -
25/04:00pm 16.7 E 9 11 1025.1 - 0.0 - - - - - - -
25/03:30pm 17.0 E 9 10 1024.8 - 0.0 - - - - - - -
25/03:00pm 16.9 ENE 7 9 1024.9 - 0.0 - - - - - - -
25/02:30pm 17.9 NE 5 8 1024.9 - 0.0 - - - - - - -
25/02:00pm 17.3 NNE 7 8 1025.1 - 0.0 - - - - - - -
25/01:30pm 17.4 NNE 8 10 1025.2 - 0.0 - - - - - - -
25/01:00pm 18.1 NE 10 11 1025.5 - 0.0 - - - - - - -
25/12:30pm 17.8 NE 9 12 1025.8 - 0.0 - - - - - - -
25/12:00pm 18.1 NE 9 12 1026.2 - 0.0 - - - - - - -
25/11:30am 17.9 ENE 11 13 1026.8 - 0.0 - - - - - - -
25/11:00am 17.4 ENE 11 14 1027.1 - 0.0 - - - - - - -
25/10:30am 17.8 NE 10 14 1027.4 - 0.0 - - - - - - -
25/10:00am 17.3 NE 8 11 1027.6 - 0.0 - - - - - - -
25/09:30am 17.2 NE 7 9 1027.6 - 0.0 - - - - - - -
25/09:00am 16.7 NE 8 10 1027.7 - 0.0 - - - - - - -
25/08:30am 15.9 NE 7 10 1027.6 - 0.0 - - - - - - -
25/08:00am 15.7 NE 8 10 1027.6 - 0.0 - - - - - - -
25/07:30am 15.4 NE 9 11 1027.3 - 0.0 - - - - - - -
25/07:00am 15.4 NE 9 13 1027.1 - 0.0 - - - - - - -
25/06:30am 15.6 NE 9 13 1027.0 - 0.0 - - - - - - -
25/06:00am 15.6 NE 11 13 1026.7 - 0.0 - - - - - - -
25/05:30am 15.6 NNE 10 13 1026.7 - 0.0 - - - - - - -
25/05:00am 15.4 NE 10 11 1026.5 - 0.0 - - - - - - -
25/04:30am 15.3 NNE 11 12 1026.5 - 0.0 - - - - - - -
25/04:00am 15.1 NNE 12 14 1026.5 - 0.0 - - - - - - -
25/03:30am 15.3 NNE 13 15 1026.5 - 0.0 - - - - - - -
25/03:00am 15.5 NNE 13 15 1026.7 - 0.0 - - - - - - -
25/02:30am 15.6 NE 11 14 1026.7 - 0.0 - - - - - - -
25/02:00am 15.6 NE 10 12 1026.8 - 0.0 - - - - - - -
25/01:30am 15.7 NE 9 12 1026.9 - 0.0 - - - - - - -
25/01:00am 15.4 NE 8 10 1027.0 - 0.0 - - - - - - -
25/12:30am 15.0 NNE 7 8 1027.1 - 0.0 - - - - - - -
25/12:00am 14.9 NNE 6 7 1027.2 - 0.0 - - - - - - -
 
Date/Time
CST
Temp

°C
Wind Pressure Rain
since 9am
mm
Weather Cloud Vis
km
Sea
Height
m
Swell
Dir
 
Speed
knots
Gust
knots
hPa Trend Height
m
Period
s
Dir
24/11:30pm 15.1 NNE 7 8 1027.2 - 0.0 - - - - - - -
24/11:00pm 15.0 NNE 7 8 1027.2 - 0.0 - - - - - - -
24/10:30pm 15.0 NNE 9 9 1027.1 - 0.0 - - - - - - -
24/10:00pm 14.5 N 7 11 1027.2 - 0.0 - - - - - - -
24/09:30pm 15.2 NW 10 12 1027.4 - 0.0 - - - - - - -
24/09:00pm 15.3 NNW 10 13 1027.2 - 0.0 - - - - - - -
24/08:30pm 15.2 N 5 7 1026.8 - 0.0 - - - - - - -
24/08:00pm 15.4 N 11 13 1026.8 - 0.0 - - - - - - -
24/07:30pm 15.2 NNW 6 7 1026.5 - 0.0 - - - - - - -
24/07:00pm 15.4 NNW 4 6 1025.8 - 0.0 - - - - - - -
24/06:30pm 15.4 N 10 12 1026.6 - 0.0 - - - - - - -
24/06:00pm 15.6 N 11 13 1026.4 - 0.0 - - - - - - -
24/05:30pm 15.5 N 11 13 1026.2 - 0.0 - - - - - - -
24/05:00pm 15.7 N 12 15 1026.2 - 0.0 - - - - - - -
24/04:30pm 15.9 N 12 14 1026.0 - 0.0 - - - - - - -
24/04:00pm 16.0 N 12 13 1025.7 - 0.0 - - - - - - -

Other Formats:

Comma delimited format used in spreadsheet applications
http://www.bom.gov.au/fwo/IDS60701/IDS60701.94804.axf

JavaScript Object Notation format (JSON) in row-major order
http://www.bom.gov.au/fwo/IDS60701/IDS60701.94804.json